ANZ109 NZAA-YSSY
Flight info
| Callsign | ANZ109 |
|---|---|
| Flight time | N/A |
| Altitude | 34000 |
| Route | AVNA2Q/05R VELMO DCT 38S163E DCT PLUGA DCT RIKNI N774 MARLN |
| Aircraft | A21N/M-SDE2E3FGHIRWXY/LB1 |
Departure
| Time | N/A |
|---|---|
| Airport | Auckland International Airport (NZAA) |
Arrival
| Time | 2026-05-04 10:16 |
|---|---|
| Airport | Sydney Kingsford Smith International Airport (YSSY) |
| Time | Latitude | Longitude | Altitude | Speed | Heading |
|---|---|---|---|---|---|
| 2026-05-04 09:35 | -35.48828 | 154.51853 | 34091 ft | 451 kts | 309° |
| 2026-05-04 09:37 | -35.39292 | 154.38242 | 34086 ft | 451 kts | 309° |
| 2026-05-04 09:38 | -35.23905 | 154.16415 | 34080 ft | 451 kts | 309° |
| 2026-05-04 09:39 | -35.19793 | 154.10606 | 34080 ft | 450 kts | 309° |
| 2026-05-04 09:39 | -35.15802 | 154.04976 | 34081 ft | 450 kts | 308° |
| 2026-05-04 09:40 | -35.11697 | 153.99196 | 34077 ft | 449 kts | 308° |
| 2026-05-04 09:40 | -35.07608 | 153.93448 | 34075 ft | 448 kts | 308° |
| 2026-05-04 09:42 | -34.91311 | 153.70632 | 34066 ft | 444 kts | 308° |
| 2026-05-04 09:43 | -34.87252 | 153.64974 | 34064 ft | 442 kts | 308° |
| 2026-05-04 09:43 | -34.83210 | 153.59347 | 34057 ft | 440 kts | 308° |
| 2026-05-04 09:44 | -34.79197 | 153.53770 | 34064 ft | 439 kts | 308° |
| 2026-05-04 09:46 | -34.63179 | 153.31597 | 34054 ft | 433 kts | 308° |
| 2026-05-04 09:46 | -34.59204 | 153.26117 | 34059 ft | 431 kts | 308° |
| 2026-05-04 09:47 | -34.55921 | 153.21596 | 34059 ft | 429 kts | 308° |
| 2026-05-04 09:49 | -34.39555 | 152.99144 | 34060 ft | 424 kts | 308° |
| 2026-05-04 09:51 | -34.25912 | 152.80540 | 34053 ft | 421 kts | 308° |
| 2026-05-04 09:51 | -34.22020 | 152.75253 | 34050 ft | 420 kts | 308° |
| 2026-05-04 09:52 | -34.18789 | 152.70868 | 34048 ft | 420 kts | 308° |
| 2026-05-04 09:52 | -34.14972 | 152.65696 | 34046 ft | 419 kts | 308° |
| 2026-05-04 09:53 | -34.11146 | 152.60460 | 34033 ft | 404 kts | 305° |
| 2026-05-04 09:53 | -34.09617 | 152.57694 | 33823 ft | 391 kts | 297° |
| 2026-05-04 09:53 | -34.08504 | 152.54738 | 33332 ft | 387 kts | 290° |
| 2026-05-04 09:53 | -34.07794 | 152.51615 | 32712 ft | 385 kts | 282° |
| 2026-05-04 09:54 | -34.07454 | 152.48411 | 32096 ft | 383 kts | 279° |
| 2026-05-04 09:54 | -34.07173 | 152.45228 | 31506 ft | 381 kts | 279° |
| 2026-05-04 09:54 | -34.06879 | 152.42055 | 30918 ft | 379 kts | 280° |
| 2026-05-04 09:54 | -34.06581 | 152.38908 | 30338 ft | 377 kts | 280° |
| 2026-05-04 09:55 | -34.06282 | 152.35775 | 29736 ft | 376 kts | 280° |
| 2026-05-04 09:55 | -34.05986 | 152.32683 | 29072 ft | 375 kts | 280° |
| 2026-05-04 09:55 | -34.05686 | 152.29564 | 28430 ft | 374 kts | 280° |
| 2026-05-04 09:55 | -34.05387 | 152.26456 | 27803 ft | 373 kts | 280° |
| 2026-05-04 09:56 | -34.05089 | 152.23356 | 27190 ft | 372 kts | 280° |
| 2026-05-04 09:56 | -34.04788 | 152.20249 | 26589 ft | 372 kts | 280° |
| 2026-05-04 09:56 | -34.04488 | 152.17158 | 25997 ft | 371 kts | 280° |
| 2026-05-04 09:56 | -34.04188 | 152.14065 | 25435 ft | 371 kts | 280° |
| 2026-05-04 09:57 | -34.03891 | 152.11018 | 24862 ft | 370 kts | 280° |
| 2026-05-04 09:57 | -34.03592 | 152.07943 | 24305 ft | 367 kts | 280° |
| 2026-05-04 09:57 | -34.03296 | 152.04910 | 23765 ft | 363 kts | 280° |
| 2026-05-04 09:57 | -34.02994 | 152.01893 | 23149 ft | 359 kts | 280° |
| 2026-05-04 09:58 | -34.02731 | 151.99281 | 22590 ft | 355 kts | 280° |
| 2026-05-04 09:58 | -34.02454 | 151.96545 | 22011 ft | 352 kts | 280° |
| 2026-05-04 09:58 | -34.02157 | 151.93606 | 21397 ft | 349 kts | 280° |
| 2026-05-04 10:00 | -34.00141 | 151.73792 | 17296 ft | 334 kts | 281° |
| 2026-05-04 10:00 | -33.99955 | 151.71981 | 16901 ft | 333 kts | 281° |
| 2026-05-04 10:02 | -33.98075 | 151.53828 | 12973 ft | 316 kts | 281° |
| 2026-05-04 10:04 | -33.98482 | 151.37294 | 9347 ft | 287 kts | 221° |
| 2026-05-04 10:04 | -34.00274 | 151.36221 | 8846 ft | 289 kts | 204° |
| 2026-05-04 10:04 | -34.02172 | 151.35440 | 8334 ft | 286 kts | 203° |
| 2026-05-04 10:04 | -34.04085 | 151.34856 | 7909 ft | 284 kts | 188° |
| 2026-05-04 10:05 | -34.06057 | 151.35044 | 7391 ft | 286 kts | 169° |
| 2026-05-04 10:05 | -34.07965 | 151.35577 | 6877 ft | 286 kts | 169° |
| 2026-05-04 10:05 | -34.09924 | 151.36129 | 6438 ft | 283 kts | 169° |
| 2026-05-04 10:05 | -34.11801 | 151.36655 | 6179 ft | 278 kts | 169° |
| 2026-05-04 10:06 | -34.13665 | 151.37174 | 5921 ft | 272 kts | 169° |
| 2026-05-04 10:06 | -34.15498 | 151.37681 | 5666 ft | 267 kts | 169° |
| 2026-05-04 10:06 | -34.17315 | 151.38178 | 5422 ft | 269 kts | 169° |
| 2026-05-04 10:08 | -34.27565 | 151.38581 | 4117 ft | 230 kts | 242° |
| 2026-05-04 10:08 | -34.28068 | 151.36836 | 3877 ft | 223 kts | 276° |
| 2026-05-04 10:08 | -34.27689 | 151.35083 | 3649 ft | 217 kts | 302° |
| 2026-05-04 10:08 | -34.26963 | 151.33485 | 3401 ft | 217 kts | 303° |
| 2026-05-04 10:09 | -34.26222 | 151.31907 | 3252 ft | 216 kts | 303° |
| 2026-05-04 10:09 | -34.25475 | 151.30331 | 3126 ft | 216 kts | 303° |
| 2026-05-04 10:09 | -34.24736 | 151.28755 | 3000 ft | 215 kts | 303° |
| 2026-05-04 10:09 | -34.23920 | 151.27266 | 2873 ft | 211 kts | 317° |
| 2026-05-04 10:10 | -34.22722 | 151.26281 | 2756 ft | 209 kts | 337° |
| 2026-05-04 10:10 | -34.21330 | 151.25723 | 2635 ft | 210 kts | 346° |
| 2026-05-04 10:10 | -34.19897 | 151.25344 | 2512 ft | 213 kts | 348° |
| 2026-05-04 10:10 | -34.18480 | 151.24972 | 2380 ft | 206 kts | 347° |
| 2026-05-04 10:11 | -34.17059 | 151.24598 | 2263 ft | 209 kts | 348° |
| 2026-05-04 10:11 | -34.15636 | 151.24224 | 2122 ft | 208 kts | 348° |
| 2026-05-04 10:11 | -34.14291 | 151.23873 | 2014 ft | 208 kts | 348° |
| 2026-05-04 10:11 | -34.12862 | 151.23500 | 1996 ft | 209 kts | 348° |
| 2026-05-04 10:12 | -34.11475 | 151.23039 | 1992 ft | 206 kts | 339° |
| 2026-05-04 10:12 | -34.10226 | 151.22102 | 1994 ft | 216 kts | 329° |
| 2026-05-04 10:12 | -34.08890 | 151.21363 | 1990 ft | 211 kts | 344° |
| 2026-05-04 10:12 | -34.07506 | 151.20942 | 1993 ft | 197 kts | 348° |
| 2026-05-04 10:13 | -34.06242 | 151.20624 | 1955 ft | 175 kts | 348° |
| 2026-05-04 10:13 | -34.05117 | 151.20327 | 1776 ft | 157 kts | 349° |
| 2026-05-04 10:13 | -34.04101 | 151.20064 | 1549 ft | 145 kts | 348° |
| 2026-05-04 10:13 | -34.03223 | 151.19830 | 1367 ft | 140 kts | 349° |
| 2026-05-04 10:14 | -34.02277 | 151.19592 | 1177 ft | 142 kts | 348° |
| 2026-05-04 10:14 | -34.01286 | 151.19328 | 983 ft | 146 kts | 349° |
| 2026-05-04 10:16 | -33.96340 | 151.18039 | 90 ft | 142 kts | 350° |
| 2026-05-04 10:16 | -33.95421 | 151.17807 | 29 ft | 111 kts | 348° |
| 2026-05-04 10:16 | -33.94908 | 151.17673 | 29 ft | 46 kts | 348° |
| 2026-05-04 10:16 | -33.94671 | 151.17608 | 30 ft | 35 kts | 345° |
| 2026-05-04 10:17 | -33.94459 | 151.17493 | 30 ft | 30 kts | 327° |
| 2026-05-04 10:17 | -33.94356 | 151.17387 | 30 ft | 11 kts | 318° |